createdAt,value
2022-08-14T00:02:01.253Z,4.65
2022-08-14T00:05:05.417Z,3.95
2022-08-14T00:08:14.181Z,3.47
2022-08-14T00:11:17.040Z,4.75
2022-08-14T00:14:19.539Z,4.03
2022-08-14T00:17:21.975Z,5.38
2022-08-14T00:20:30.394Z,4.18
2022-08-14T00:23:38.660Z,4.60
2022-08-14T00:26:40.788Z,3.85
2022-08-14T00:29:44.038Z,3.40
2022-08-14T00:32:52.007Z,3.53
2022-08-14T00:36:36.358Z,4.97
2022-08-14T00:39:20.174Z,4.28
2022-08-14T00:42:55.551Z,4.05
2022-08-14T00:45:51.643Z,3.83
2022-08-14T00:48:54.930Z,4.72
2022-08-14T00:52:00.605Z,3.85
2022-08-14T00:55:06.079Z,4.35
2022-08-14T00:58:32.513Z,4.07
2022-08-14T01:01:37.182Z,4.55
2022-08-14T01:04:53.543Z,4.57
2022-08-14T01:07:59.856Z,4.68
2022-08-14T01:11:02.822Z,4.38
2022-08-14T01:14:25.514Z,4.65
2022-08-14T01:17:50.800Z,4.45
2022-08-14T01:21:06.446Z,5.10
2022-08-14T01:24:10.909Z,3.53
2022-08-14T01:27:20.301Z,4.07
2022-08-14T01:30:26.545Z,5.82
2022-08-14T01:36:36.977Z,5.55
2022-08-14T01:39:39.582Z,4.93
2022-08-14T01:42:45.654Z,4.25
2022-08-14T01:45:57.827Z,4.50
2022-08-14T01:49:11.418Z,3.40
2022-08-14T01:52:34.516Z,5.05
2022-08-14T01:55:40.472Z,4.75
2022-08-14T01:58:55.621Z,5.50
2022-08-14T02:02:05.484Z,4.78
2022-08-14T02:05:13.894Z,4.97
2022-08-14T02:08:22.185Z,4.82
2022-08-14T02:11:26.129Z,5.38
2022-08-14T02:14:31.769Z,4.47
2022-08-14T02:17:34.879Z,4.72
2022-08-14T02:20:37.811Z,5.53
2022-08-14T02:23:40.711Z,4.32
2022-08-14T02:28:18.418Z,4.50
2022-08-14T02:30:13.727Z,6.00
2022-08-14T02:33:16.199Z,6.13
2022-08-14T02:37:04.653Z,4.80
2022-08-14T02:39:43.247Z,4.43
2022-08-14T02:42:55.012Z,4.70
2022-08-14T02:46:00.010Z,6.13
2022-08-14T02:49:06.481Z,4.60
2022-08-14T02:52:55.535Z,4.72
2022-08-14T02:55:33.108Z,5.65
2022-08-14T02:58:41.787Z,4.70
2022-08-14T03:01:50.459Z,5.07
2022-08-14T03:04:55.832Z,5.22
2022-08-14T03:08:09.177Z,4.65
2022-08-14T03:11:13.728Z,5.57
2022-08-14T03:14:18.061Z,4.70
2022-08-14T03:17:20.867Z,6.53
2022-08-14T03:20:25.655Z,5.00
2022-08-14T03:23:28.361Z,6.47
2022-08-14T03:26:31.001Z,5.85
2022-08-14T03:29:33.353Z,4.65
2022-08-14T03:36:00.261Z,6.22
2022-08-14T03:39:11.904Z,5.93
2022-08-14T03:42:21.975Z,6.33
2022-08-14T03:45:34.921Z,6.55
2022-08-14T03:48:40.292Z,6.32
2022-08-14T03:51:45.812Z,6.38
2022-08-14T03:54:52.560Z,4.97
2022-08-14T03:57:56.029Z,5.25
2022-08-14T04:01:00.882Z,4.80
2022-08-14T04:04:06.258Z,4.97
2022-08-14T04:07:10.949Z,7.60
2022-08-14T04:10:14.242Z,5.63
2022-08-14T04:13:20.243Z,4.90
2022-08-14T04:16:26.225Z,5.20
2022-08-14T04:19:36.334Z,5.60
2022-08-14T04:22:44.080Z,4.43
2022-08-14T04:25:46.401Z,4.25
2022-08-14T04:29:05.396Z,4.63
2022-08-14T04:33:02.480Z,5.95
2022-08-14T04:35:56.886Z,5.35
2022-08-14T04:39:17.767Z,5.00
2022-08-14T04:42:39.082Z,6.18
2022-08-14T04:45:51.413Z,4.80
2022-08-14T04:48:55.533Z,6.07
2022-08-14T04:52:15.259Z,5.57
2022-08-14T04:55:21.417Z,5.63
2022-08-14T04:58:32.580Z,4.68
2022-08-14T05:01:40.333Z,5.60
2022-08-14T05:04:45.148Z,5.45
2022-08-14T05:08:09.779Z,4.35
2022-08-14T05:11:13.467Z,4.95
2022-08-14T05:14:45.661Z,5.72
2022-08-14T05:17:53.945Z,5.15
2022-08-14T05:21:58.023Z,5.18
2022-08-14T05:27:34.572Z,5.57
2022-08-14T05:30:37.780Z,4.57
2022-08-14T05:33:40.619Z,5.15
2022-08-14T05:36:42.861Z,5.20
2022-08-14T05:39:52.798Z,5.35
2022-08-14T05:42:55.549Z,4.95
2022-08-14T05:45:59.828Z,6.35
2022-08-14T05:49:05.602Z,5.65
2022-08-14T05:52:11.361Z,5.53
2022-08-14T05:55:21.902Z,6.85
2022-08-14T06:01:45.695Z,5.90
2022-08-14T06:04:49.545Z,5.15
2022-08-14T06:07:52.058Z,6.13
2022-08-14T06:10:57.427Z,5.45
2022-08-14T06:14:00.333Z,4.50
2022-08-14T06:17:11.599Z,5.30
2022-08-14T06:20:30.133Z,5.93
2022-08-14T06:26:37.553Z,4.78
2022-08-14T06:29:40.095Z,4.85
2022-08-14T06:32:43.231Z,5.15
2022-08-14T06:35:46.972Z,3.83
2022-08-14T06:38:52.158Z,4.45
2022-08-14T06:41:58.471Z,4.43
2022-08-14T06:45:02.202Z,3.78
2022-08-14T06:48:17.445Z,4.13
2022-08-14T06:51:19.859Z,4.82
2022-08-14T06:54:22.174Z,4.53
2022-08-14T06:57:42.070Z,4.57
2022-08-14T07:01:05.644Z,3.97
2022-08-14T07:04:26.307Z,3.57
2022-08-14T07:07:39.600Z,3.50
2022-08-14T07:10:43.903Z,3.00
2022-08-14T07:13:46.430Z,4.45
2022-08-14T07:16:50.940Z,3.75
2022-08-14T07:19:53.313Z,3.45
2022-08-14T07:23:03.926Z,2.63
2022-08-14T07:26:10.739Z,3.80
2022-08-14T07:29:17.713Z,3.30
2022-08-14T07:32:33.823Z,3.03
2022-08-14T07:35:42.967Z,3.13
2022-08-14T07:39:00.814Z,3.13
2022-08-14T07:42:05.926Z,2.88
2022-08-14T07:45:09.724Z,3.35
2022-08-14T07:48:14.962Z,3.10
2022-08-14T07:51:20.346Z,3.85
2022-08-14T07:54:30.246Z,3.03
2022-08-14T07:57:33.261Z,2.92
2022-08-14T08:00:35.675Z,3.13
2022-08-14T08:03:43.334Z,2.20
2022-08-14T08:06:53.375Z,2.17
2022-08-14T08:09:57.960Z,2.45
2022-08-14T08:13:14.073Z,2.92
2022-08-14T08:16:21.641Z,2.42
2022-08-14T08:19:26.529Z,2.25
2022-08-14T08:22:48.060Z,2.33
2022-08-14T08:25:51.890Z,2.80
2022-08-14T08:28:59.057Z,2.50
2022-08-14T08:32:01.766Z,2.10
2022-08-14T08:35:18.554Z,2.83
2022-08-14T08:39:17.145Z,2.83
2022-08-14T08:41:53.737Z,2.35
2022-08-14T08:44:56.258Z,2.47
2022-08-14T08:47:59.455Z,3.55
2022-08-14T08:51:03.634Z,2.47
2022-08-14T08:54:19.626Z,2.30
2022-08-14T08:57:22.319Z,2.85
2022-08-14T09:00:30.004Z,2.67
2022-08-14T09:03:32.599Z,2.05
2022-08-14T09:06:56.860Z,2.47
2022-08-14T09:10:07.450Z,2.00
2022-08-14T09:16:19.024Z,2.13
2022-08-14T09:19:22.809Z,2.42
2022-08-14T09:22:34.958Z,2.90
2022-08-14T09:25:59.625Z,2.03
2022-08-14T09:29:05.010Z,3.20
2022-08-14T09:32:10.150Z,2.40
2022-08-14T09:39:05.572Z,2.08
2022-08-14T09:42:44.938Z,2.20
2022-08-14T09:45:53.849Z,2.08
2022-08-14T09:49:00.636Z,2.05
2022-08-14T09:52:32.930Z,2.13
2022-08-14T09:55:42.640Z,1.92
2022-08-14T09:58:47.814Z,1.90
2022-08-14T10:01:52.607Z,1.75
2022-08-14T10:05:04.380Z,2.75
2022-08-14T10:08:25.516Z,2.13
2022-08-14T10:11:36.627Z,2.13
2022-08-14T10:14:39.877Z,2.97
2022-08-14T10:17:42.209Z,1.92
2022-08-14T10:21:06.553Z,2.13
2022-08-14T10:24:23.312Z,2.00
2022-08-14T10:27:26.966Z,1.73
2022-08-14T10:30:38.531Z,2.00
2022-08-14T10:33:40.619Z,2.05
2022-08-14T10:36:47.912Z,3.13
2022-08-14T10:40:05.785Z,3.13
2022-08-14T10:43:23.917Z,2.20
2022-08-14T10:47:41.210Z,2.15
2022-08-14T10:50:00.752Z,2.27
2022-08-14T10:53:07.974Z,1.95
2022-08-14T10:56:21.831Z,1.73
2022-08-14T10:59:52.962Z,2.55
2022-08-14T11:03:10.934Z,2.25
2022-08-14T11:06:24.554Z,2.13
2022-08-14T11:09:31.588Z,2.25
2022-08-14T11:12:48.145Z,1.95
2022-08-14T11:15:51.211Z,1.67
2022-08-14T11:18:59.717Z,2.00
2022-08-14T11:22:03.415Z,2.05
2022-08-14T11:25:12.374Z,1.85
2022-08-14T11:28:19.013Z,1.92
2022-08-14T11:31:25.772Z,2.17
2022-08-14T11:34:29.822Z,1.58
2022-08-14T11:37:40.411Z,2.45
2022-08-14T11:40:43.780Z,2.65
2022-08-14T11:43:58.434Z,2.42
2022-08-14T11:47:06.052Z,2.00
2022-08-14T11:50:33.869Z,2.30
2022-08-14T11:53:43.676Z,2.63
2022-08-14T11:56:52.663Z,2.85
2022-08-14T12:00:08.557Z,3.65
2022-08-14T12:03:14.303Z,2.47
2022-08-14T12:06:29.166Z,2.58
2022-08-14T12:09:43.100Z,2.83
2022-08-14T12:12:45.497Z,2.08
2022-08-14T12:15:59.009Z,1.92
2022-08-14T12:19:01.407Z,3.20
2022-08-14T12:22:04.073Z,3.40
2022-08-14T12:25:15.138Z,2.20
2022-08-14T12:28:27.180Z,2.15
2022-08-14T12:31:44.764Z,2.72
2022-08-14T12:34:54.675Z,2.97
2022-08-14T12:37:56.896Z,1.90
2022-08-14T12:40:59.180Z,2.38
2022-08-14T12:44:08.284Z,1.92
2022-08-14T12:47:18.032Z,2.30
2022-08-14T12:50:20.761Z,1.90
2022-08-14T12:53:36.350Z,2.45
2022-08-14T12:56:40.952Z,2.47
2022-08-14T12:59:50.664Z,2.60
2022-08-14T13:02:55.158Z,2.20
2022-08-14T13:05:58.001Z,1.88
2022-08-14T13:09:11.125Z,1.70
2022-08-14T13:12:31.292Z,2.60
2022-08-14T13:15:38.387Z,2.10
2022-08-14T13:18:43.699Z,2.67
2022-08-14T13:22:05.474Z,1.90
2022-08-14T13:25:18.581Z,2.60
2022-08-14T13:28:32.652Z,3.08
2022-08-14T13:31:39.042Z,2.00
2022-08-14T13:34:45.576Z,2.00
2022-08-14T13:37:52.282Z,2.10
2022-08-14T13:40:56.175Z,2.10
2022-08-14T13:44:00.130Z,2.28
2022-08-14T13:47:06.683Z,2.58
2022-08-14T13:50:20.487Z,2.15
2022-08-14T13:53:27.052Z,1.80
2022-08-14T13:56:42.545Z,2.90
2022-08-14T13:59:51.268Z,2.13
2022-08-14T14:02:59.876Z,1.90
2022-08-14T14:06:03.574Z,2.28
2022-08-14T14:12:38.122Z,2.85
2022-08-14T14:15:57.924Z,1.75
2022-08-14T14:19:09.454Z,2.17
2022-08-14T14:22:36.291Z,1.90
2022-08-14T14:25:48.100Z,2.72
2022-08-14T14:28:57.012Z,1.50
2022-08-14T14:32:00.736Z,1.92
2022-08-14T14:35:03.881Z,1.60
2022-08-14T14:38:08.813Z,1.88
2022-08-14T14:41:15.243Z,2.50
2022-08-14T14:44:22.841Z,2.65
2022-08-14T14:47:26.126Z,3.42
2022-08-14T14:50:28.724Z,1.98
2022-08-14T14:53:39.102Z,2.00
2022-08-14T14:56:50.337Z,2.55
2022-08-14T14:59:54.417Z,2.15
2022-08-14T15:02:59.468Z,3.00
2022-08-14T15:06:02.847Z,2.22
2022-08-14T15:12:34.171Z,1.58
2022-08-14T15:15:37.507Z,2.03
2022-08-14T15:18:46.845Z,2.33
2022-08-14T15:21:51.609Z,2.58
2022-08-14T15:24:54.015Z,2.17
2022-08-14T15:27:56.740Z,2.55
2022-08-14T15:31:05.269Z,2.30
2022-08-14T15:34:44.040Z,2.58
2022-08-14T15:37:36.589Z,2.63
2022-08-14T15:40:44.653Z,2.67
2022-08-14T15:43:54.191Z,1.77
2022-08-14T15:46:59.875Z,2.70
2022-08-14T15:50:08.765Z,2.60
2022-08-14T15:53:12.139Z,2.50
2022-08-14T16:00:11.557Z,2.40
2022-08-14T16:03:35.806Z,2.90
2022-08-14T16:06:40.680Z,1.67
2022-08-14T16:09:43.008Z,2.58
2022-08-14T16:12:47.675Z,2.03
2022-08-14T16:15:53.450Z,3.15
2022-08-14T16:18:59.024Z,2.38
2022-08-14T16:22:58.156Z,1.95
2022-08-14T16:25:36.811Z,2.03
2022-08-14T16:28:40.259Z,2.25
2022-08-14T16:31:43.968Z,3.17
2022-08-14T16:34:49.236Z,2.28
2022-08-14T16:37:55.632Z,2.17
2022-08-14T16:41:21.829Z,2.05
2022-08-14T16:44:38.101Z,2.05
2022-08-14T16:47:44.325Z,1.77
2022-08-14T16:50:51.167Z,2.22
2022-08-14T16:53:54.695Z,2.53
2022-08-14T16:57:20.795Z,2.75
2022-08-14T17:00:43.402Z,1.90
2022-08-14T17:04:04.577Z,2.67
2022-08-14T17:07:11.430Z,2.63
2022-08-14T17:10:15.027Z,1.98
2022-08-14T17:13:27.440Z,1.58
2022-08-14T17:16:46.683Z,2.40
2022-08-14T17:19:55.968Z,4.43
2022-08-14T17:22:59.964Z,2.17
2022-08-14T17:26:04.372Z,2.42
2022-08-14T17:29:23.344Z,2.30
2022-08-14T17:32:56.266Z,2.15
2022-08-14T17:36:22.456Z,2.15
2022-08-14T17:39:25.022Z,2.30
2022-08-14T17:42:53.754Z,2.13
2022-08-14T17:45:56.029Z,2.50
2022-08-14T17:49:16.255Z,2.78
2022-08-14T17:52:34.938Z,2.67
2022-08-14T17:56:01.718Z,2.30
2022-08-14T17:59:07.070Z,2.50
2022-08-14T18:02:16.653Z,2.60
2022-08-14T18:05:22.899Z,2.40
2022-08-14T18:08:32.572Z,2.58
2022-08-14T18:11:46.288Z,2.75
2022-08-14T18:14:53.297Z,2.85
2022-08-14T18:17:57.632Z,2.97
2022-08-14T18:21:41.650Z,2.47
2022-08-14T18:24:29.474Z,3.45
2022-08-14T18:27:41.654Z,2.42
2022-08-14T18:30:58.126Z,2.30
2022-08-14T18:34:12.198Z,2.60
2022-08-14T18:37:24.813Z,2.08
2022-08-14T18:40:35.090Z,2.33
2022-08-14T18:43:58.904Z,3.35
2022-08-14T18:47:16.018Z,2.15
2022-08-14T18:50:30.984Z,3.25
2022-08-14T18:53:57.159Z,2.92
2022-08-14T18:57:03.489Z,1.75
2022-08-14T19:00:33.237Z,2.33
2022-08-14T19:03:36.991Z,3.10
2022-08-14T19:06:42.981Z,2.72
2022-08-14T19:10:06.206Z,3.30
2022-08-14T19:13:12.351Z,2.83
2022-08-14T19:16:22.955Z,2.50
2022-08-14T19:19:38.621Z,2.38
2022-08-14T19:22:42.055Z,2.63
2022-08-14T19:25:48.961Z,3.10
2022-08-14T19:28:54.213Z,3.13
2022-08-14T19:31:59.274Z,2.70
2022-08-14T19:35:02.514Z,2.47
2022-08-14T19:38:45.025Z,2.22
2022-08-14T19:41:58.300Z,3.05
2022-08-14T19:45:00.930Z,2.78
2022-08-14T19:48:10.413Z,3.00
2022-08-14T19:51:15.744Z,2.70
2022-08-14T19:54:18.287Z,3.35
2022-08-14T19:57:23.134Z,3.15
2022-08-14T20:00:28.484Z,3.88
2022-08-14T20:04:00.390Z,1.95
2022-08-14T20:07:08.911Z,2.40
2022-08-14T20:11:04.236Z,2.83
2022-08-14T20:14:28.273Z,2.72
2022-08-14T20:17:32.031Z,7.35
2022-08-14T20:20:43.449Z,3.33
2022-08-14T20:23:47.859Z,2.90
2022-08-14T20:27:33.243Z,2.92
2022-08-14T20:33:48.045Z,2.80
2022-08-14T20:37:09.542Z,4.78
2022-08-14T20:40:23.363Z,4.22
2022-08-14T20:43:52.811Z,3.05
2022-08-14T20:47:01.156Z,4.05
2022-08-14T20:50:22.348Z,3.08
2022-08-14T20:56:40.722Z,2.92
2022-08-14T20:59:53.614Z,2.63
2022-08-14T21:02:58.928Z,3.88
2022-08-14T21:06:16.982Z,3.00
2022-08-14T21:10:05.108Z,3.03
2022-08-14T21:13:13.956Z,3.83
2022-08-14T21:16:33.604Z,2.97
2022-08-14T21:19:34.361Z,3.58
2022-08-14T21:22:37.201Z,2.58
2022-08-14T21:25:39.555Z,2.88
2022-08-14T21:28:45.052Z,2.95
2022-08-14T21:31:55.880Z,3.78
2022-08-14T21:35:08.214Z,3.90
2022-08-14T21:38:18.208Z,3.15
2022-08-14T21:41:41.339Z,2.83
2022-08-14T21:44:49.670Z,3.40
2022-08-14T21:47:53.418Z,4.75
2022-08-14T21:51:01.302Z,3.65
2022-08-14T21:54:30.175Z,3.20
2022-08-14T21:57:53.671Z,3.53
2022-08-14T22:00:57.666Z,3.33
2022-08-14T22:04:02.364Z,3.03
2022-08-14T22:07:22.377Z,3.67
2022-08-14T22:10:32.572Z,3.70
2022-08-14T22:13:35.002Z,3.95
2022-08-14T22:17:01.756Z,4.50
2022-08-14T22:20:16.329Z,3.78
2022-08-14T22:23:19.600Z,4.05
2022-08-14T22:26:22.343Z,3.78
2022-08-14T22:29:33.407Z,3.20
2022-08-14T22:32:57.849Z,3.17
2022-08-14T22:36:02.183Z,4.10
2022-08-14T22:39:11.074Z,4.18
2022-08-14T22:42:21.414Z,2.72
2022-08-14T22:45:26.176Z,3.65
2022-08-14T22:48:39.105Z,3.65
2022-08-14T22:51:48.281Z,3.47
2022-08-14T22:54:53.179Z,4.28
2022-08-14T22:57:55.720Z,5.68
2022-08-14T23:01:01.501Z,3.60
2022-08-14T23:04:05.075Z,4.07
2022-08-14T23:07:21.906Z,4.93
2022-08-14T23:10:32.913Z,4.50
2022-08-14T23:13:38.878Z,4.43
2022-08-14T23:16:42.419Z,4.30
2022-08-14T23:19:45.321Z,4.47
2022-08-14T23:22:52.314Z,4.90
2022-08-14T23:26:00.203Z,5.28
2022-08-14T23:29:04.370Z,3.88
2022-08-14T23:32:06.613Z,3.92
2022-08-14T23:35:27.532Z,4.63
2022-08-14T23:38:31.452Z,3.20
2022-08-14T23:41:46.158Z,4.30
2022-08-14T23:44:55.755Z,3.70
2022-08-14T23:48:02.212Z,4.05
2022-08-14T23:51:05.979Z,5.18
2022-08-14T23:54:48.434Z,4.15
2022-08-14T23:57:30.891Z,3.78
